createdAt,value
2022-09-20T00:04:38.943Z,42.88
2022-09-20T00:14:40.758Z,41.45
2022-09-20T00:24:46.811Z,41.17
2022-09-20T00:35:09.878Z,41.15
2022-09-20T00:45:27.694Z,40.95
2022-09-20T00:55:30.531Z,40.35
2022-09-20T01:05:32.930Z,39.40
2022-09-20T01:15:36.503Z,38.70
2022-09-20T01:26:00.497Z,38.58
2022-09-20T01:36:04.957Z,36.58
2022-09-20T01:46:29.782Z,36.55
2022-09-20T01:57:09.063Z,33.80
2022-09-20T02:07:39.978Z,34.13
2022-09-20T02:18:09.286Z,31.52
2022-09-20T02:28:29.191Z,29.92
2022-09-20T02:38:40.919Z,28.83
2022-09-20T02:49:06.361Z,26.95
2022-09-20T02:59:20.000Z,23.95
2022-09-20T03:09:51.435Z,23.70
2022-09-20T03:20:14.963Z,22.35
2022-09-20T03:30:25.915Z,22.08
2022-09-20T03:40:49.174Z,19.90
2022-09-20T03:51:05.751Z,19.55
2022-09-20T04:01:26.171Z,17.92
2022-09-20T04:11:54.454Z,16.45
2022-09-20T04:21:58.396Z,15.57
2022-09-20T04:32:10.345Z,14.88
2022-09-20T04:42:23.823Z,13.32
2022-09-20T04:52:56.598Z,13.00
2022-09-20T05:03:36.087Z,11.60
2022-09-20T05:13:49.875Z,11.27
2022-09-20T05:24:22.819Z,10.65
2022-09-20T05:34:50.331Z,9.82
2022-09-20T05:45:13.444Z,8.68
2022-09-20T05:55:39.034Z,8.63
2022-09-20T06:06:14.680Z,7.53
2022-09-20T06:16:43.185Z,6.10
2022-09-20T06:26:45.292Z,5.80
2022-09-20T06:37:12.915Z,5.15
2022-09-20T06:47:15.070Z,4.60
2022-09-20T06:57:40.155Z,4.50
2022-09-20T07:07:43.896Z,3.92
2022-09-20T07:17:45.975Z,3.65
2022-09-20T07:27:50.317Z,3.17
2022-09-20T07:37:57.299Z,3.10
2022-09-20T07:47:59.531Z,2.70
2022-09-20T07:58:01.708Z,2.15
2022-09-20T08:08:03.503Z,2.15
2022-09-20T08:18:08.488Z,1.60
2022-09-20T08:28:10.222Z,1.67
2022-09-20T08:48:34.379Z,1.35
2022-09-20T08:58:36.736Z,1.30
2022-09-20T09:08:39.304Z,1.17
2022-09-20T09:18:45.989Z,1.00
2022-09-20T09:29:07.328Z,0.98
2022-09-20T09:39:30.106Z,1.10
2022-09-20T09:49:36.598Z,0.80
2022-09-20T10:00:19.471Z,0.82
2022-09-20T10:11:04.093Z,0.80
2022-09-20T10:21:38.039Z,0.70
2022-09-20T10:32:01.088Z,0.60
2022-09-20T10:42:48.563Z,0.60
2022-09-20T10:52:50.398Z,0.50
2022-09-20T11:03:20.618Z,0.55
2022-09-20T11:13:48.386Z,0.40
2022-09-20T11:24:02.830Z,0.32
2022-09-20T11:34:29.874Z,0.30
2022-09-20T11:44:32.560Z,0.40
2022-09-20T11:55:06.734Z,0.40
2022-09-20T12:05:33.931Z,0.30
2022-09-20T12:15:39.190Z,0.32
2022-09-20T12:26:00.406Z,0.60
2022-09-20T12:36:16.400Z,0.40
2022-09-20T12:46:29.972Z,0.90
2022-09-20T12:56:36.752Z,0.93
2022-09-20T13:06:38.591Z,1.13
2022-09-20T13:16:52.326Z,0.80
2022-09-20T13:26:56.479Z,0.82
2022-09-20T13:36:58.541Z,1.00
2022-09-20T13:47:00.527Z,0.75
2022-09-20T13:57:06.700Z,0.85
2022-09-20T14:07:08.610Z,0.60
2022-09-20T14:17:18.943Z,0.75
2022-09-20T14:27:22.012Z,0.60
2022-09-20T14:37:31.401Z,0.70
2022-09-20T14:47:52.909Z,0.60
2022-09-20T14:58:03.243Z,0.60
2022-09-20T15:08:10.755Z,0.55
2022-09-20T15:18:26.317Z,0.60
2022-09-20T15:28:28.210Z,0.60
2022-09-20T15:38:30.024Z,0.63
2022-09-20T15:48:31.864Z,0.60
2022-09-20T15:58:36.090Z,0.82
2022-09-20T16:08:40.240Z,0.70
2022-09-20T16:19:00.931Z,0.60
2022-09-20T16:29:04.960Z,0.60
2022-09-20T16:39:07.637Z,1.02
2022-09-20T16:49:11.485Z,0.93
2022-09-20T16:59:15.747Z,1.08
2022-09-20T17:09:17.819Z,0.90
2022-09-20T17:19:21.137Z,2.75
2022-09-20T17:29:23.224Z,5.00
2022-09-20T17:39:25.193Z,9.25
2022-09-20T17:49:27.694Z,11.32
2022-09-20T17:59:29.539Z,13.65
2022-09-20T18:09:31.350Z,16.10
2022-09-20T18:19:33.795Z,18.48
2022-09-20T18:29:37.066Z,20.95
2022-09-20T18:39:38.889Z,19.83
2022-09-20T18:49:40.672Z,19.23
2022-09-20T18:59:53.766Z,18.27
2022-09-20T19:09:59.046Z,17.23
2022-09-20T19:20:09.059Z,15.48
2022-09-20T19:30:15.409Z,14.15
2022-09-20T19:40:26.354Z,13.18
2022-09-20T19:50:50.071Z,14.38
2022-09-20T20:00:52.935Z,13.90
2022-09-20T20:11:00.478Z,16.63
2022-09-20T20:21:08.291Z,15.95
2022-09-20T20:31:12.297Z,16.45
2022-09-20T20:41:16.275Z,15.25
2022-09-20T20:51:21.806Z,14.02
2022-09-20T21:01:45.914Z,13.65
2022-09-20T21:11:48.589Z,12.48
2022-09-20T21:21:50.445Z,12.23
2022-09-20T21:31:52.213Z,11.70
2022-09-20T21:41:54.472Z,11.68
2022-09-20T21:51:56.231Z,10.52
2022-09-20T22:01:58.675Z,9.45
2022-09-20T22:12:00.833Z,9.10
2022-09-20T22:22:02.611Z,8.23
2022-09-20T22:32:04.539Z,7.60
2022-09-20T22:42:06.368Z,7.20
2022-09-20T22:52:08.104Z,7.13
2022-09-20T23:02:09.848Z,6.60
2022-09-20T23:12:11.583Z,5.80
2022-09-20T23:22:13.342Z,5.75
2022-09-20T23:32:15.078Z,5.30
2022-09-20T23:42:16.850Z,5.35
2022-09-20T23:52:18.684Z,4.85
